sensor_id;sensor_type;location;lat;lon;timestamp;P1;durP1;ratioP1;P2;durP2;ratioP2
12556;SDS011;6344;49.932;8.308;2022-10-16T00:00:33;4.50;;;4.07;;
12556;SDS011;6344;49.932;8.308;2022-10-16T00:03:00;5.37;;;4.87;;
12556;SDS011;6344;49.932;8.308;2022-10-16T00:05:27;5.73;;;5.33;;
12556;SDS011;6344;49.932;8.308;2022-10-16T00:07:54;5.07;;;4.50;;
12556;SDS011;6344;49.932;8.308;2022-10-16T00:10:22;5.87;;;5.37;;
12556;SDS011;6344;49.932;8.308;2022-10-16T00:12:49;6.93;;;6.23;;
12556;SDS011;6344;49.932;8.308;2022-10-16T00:15:16;6.80;;;5.00;;
12556;SDS011;6344;49.932;8.308;2022-10-16T00:17:43;4.90;;;4.40;;
12556;SDS011;6344;49.932;8.308;2022-10-16T00:20:09;5.03;;;4.67;;
12556;SDS011;6344;49.932;8.308;2022-10-16T00:22:36;4.80;;;4.20;;
12556;SDS011;6344;49.932;8.308;2022-10-16T00:25:03;4.20;;;3.90;;
12556;SDS011;6344;49.932;8.308;2022-10-16T00:27:31;4.37;;;3.97;;
12556;SDS011;6344;49.932;8.308;2022-10-16T00:29:58;5.20;;;4.80;;
12556;SDS011;6344;49.932;8.308;2022-10-16T00:32:25;5.27;;;4.87;;
12556;SDS011;6344;49.932;8.308;2022-10-16T00:34:52;4.00;;;3.70;;
12556;SDS011;6344;49.932;8.308;2022-10-16T00:37:19;4.70;;;4.40;;
12556;SDS011;6344;49.932;8.308;2022-10-16T00:39:46;6.13;;;5.63;;
12556;SDS011;6344;49.932;8.308;2022-10-16T00:42:14;5.63;;;5.13;;
12556;SDS011;6344;49.932;8.308;2022-10-16T00:44:47;4.80;;;4.40;;
12556;SDS011;6344;49.932;8.308;2022-10-16T00:47:18;7.13;;;6.03;;
12556;SDS011;6344;49.932;8.308;2022-10-16T00:49:48;8.50;;;5.90;;
12556;SDS011;6344;49.932;8.308;2022-10-16T00:52:17;6.70;;;4.77;;
12556;SDS011;6344;49.932;8.308;2022-10-16T00:54:44;8.33;;;7.53;;
12556;SDS011;6344;49.932;8.308;2022-10-16T00:57:13;10.43;;;7.07;;
12556;SDS011;6344;49.932;8.308;2022-10-16T00:59:40;7.90;;;7.17;;
12556;SDS011;6344;49.932;8.308;2022-10-16T01:02:09;8.00;;;7.30;;
12556;SDS011;6344;49.932;8.308;2022-10-16T01:04:38;7.20;;;6.60;;
12556;SDS011;6344;49.932;8.308;2022-10-16T01:07:09;8.17;;;7.67;;
12556;SDS011;6344;49.932;8.308;2022-10-16T01:09:43;8.03;;;7.43;;
12556;SDS011;6344;49.932;8.308;2022-10-16T01:12:18;7.00;;;6.50;;
12556;SDS011;6344;49.932;8.308;2022-10-16T01:14:55;6.77;;;6.07;;
12556;SDS011;6344;49.932;8.308;2022-10-16T01:17:29;7.27;;;6.67;;
12556;SDS011;6344;49.932;8.308;2022-10-16T01:20:03;8.10;;;7.40;;
12556;SDS011;6344;49.932;8.308;2022-10-16T01:22:42;7.00;;;6.50;;
12556;SDS011;6344;49.932;8.308;2022-10-16T01:25:16;7.80;;;7.10;;
12556;SDS011;6344;49.932;8.308;2022-10-16T01:27:51;7.83;;;7.33;;
12556;SDS011;6344;49.932;8.308;2022-10-16T01:30:20;8.27;;;7.57;;
12556;SDS011;6344;49.932;8.308;2022-10-16T01:32:52;7.57;;;7.07;;
12556;SDS011;6344;49.932;8.308;2022-10-16T01:35:23;7.37;;;6.73;;
12556;SDS011;6344;49.932;8.308;2022-10-16T01:37:53;7.60;;;7.00;;
12556;SDS011;6344;49.932;8.308;2022-10-16T01:40:26;7.70;;;7.00;;
12556;SDS011;6344;49.932;8.308;2022-10-16T01:42:57;7.57;;;6.97;;
12556;SDS011;6344;49.932;8.308;2022-10-16T01:45:26;8.47;;;7.97;;
12556;SDS011;6344;49.932;8.308;2022-10-16T01:47:56;7.67;;;7.17;;
12556;SDS011;6344;49.932;8.308;2022-10-16T01:50:24;7.70;;;7.10;;
12556;SDS011;6344;49.932;8.308;2022-10-16T01:52:52;7.37;;;6.77;;
12556;SDS011;6344;49.932;8.308;2022-10-16T01:55:24;7.10;;;6.60;;
12556;SDS011;6344;49.932;8.308;2022-10-16T01:57:55;7.00;;;6.40;;
12556;SDS011;6344;49.932;8.308;2022-10-16T02:00:25;7.77;;;7.17;;
12556;SDS011;6344;49.932;8.308;2022-10-16T02:02:53;7.93;;;7.23;;
12556;SDS011;6344;49.932;8.308;2022-10-16T02:05:23;6.87;;;6.37;;
12556;SDS011;6344;49.932;8.308;2022-10-16T02:07:52;7.67;;;7.07;;
12556;SDS011;6344;49.932;8.308;2022-10-16T02:10:20;6.47;;;5.87;;
12556;SDS011;6344;49.932;8.308;2022-10-16T02:12:48;7.17;;;6.57;;
12556;SDS011;6344;49.932;8.308;2022-10-16T02:15:19;6.73;;;6.13;;
12556;SDS011;6344;49.932;8.308;2022-10-16T02:17:46;5.93;;;5.53;;
12556;SDS011;6344;49.932;8.308;2022-10-16T02:20:13;5.80;;;5.50;;
12556;SDS011;6344;49.932;8.308;2022-10-16T02:22:41;8.27;;;4.97;;
12556;SDS011;6344;49.932;8.308;2022-10-16T02:25:10;5.00;;;4.70;;
12556;SDS011;6344;49.932;8.308;2022-10-16T02:27:43;5.30;;;4.90;;
12556;SDS011;6344;49.932;8.308;2022-10-16T02:30:17;5.47;;;5.03;;
12556;SDS011;6344;49.932;8.308;2022-10-16T02:32:48;4.70;;;4.40;;
12556;SDS011;6344;49.932;8.308;2022-10-16T02:35:17;4.93;;;4.53;;
12556;SDS011;6344;49.932;8.308;2022-10-16T02:37:46;4.27;;;3.83;;
12556;SDS011;6344;49.932;8.308;2022-10-16T02:40:13;4.83;;;4.53;;
12556;SDS011;6344;49.932;8.308;2022-10-16T02:42:41;4.63;;;3.80;;
12556;SDS011;6344;49.932;8.308;2022-10-16T02:45:08;3.80;;;3.60;;
12556;SDS011;6344;49.932;8.308;2022-10-16T02:47:37;3.90;;;3.60;;
12556;SDS011;6344;49.932;8.308;2022-10-16T02:50:04;4.03;;;3.60;;
12556;SDS011;6344;49.932;8.308;2022-10-16T02:52:32;3.67;;;3.47;;
12556;SDS011;6344;49.932;8.308;2022-10-16T02:54:58;3.13;;;2.93;;
12556;SDS011;6344;49.932;8.308;2022-10-16T02:57:25;3.60;;;3.30;;
12556;SDS011;6344;49.932;8.308;2022-10-16T02:59:52;3.67;;;3.37;;
12556;SDS011;6344;49.932;8.308;2022-10-16T03:02:19;3.90;;;3.63;;
12556;SDS011;6344;49.932;8.308;2022-10-16T03:04:47;5.00;;;4.70;;
12556;SDS011;6344;49.932;8.308;2022-10-16T03:07:14;4.77;;;4.37;;
12556;SDS011;6344;49.932;8.308;2022-10-16T03:09:40;4.70;;;4.33;;
12556;SDS011;6344;49.932;8.308;2022-10-16T03:12:07;5.57;;;5.17;;
12556;SDS011;6344;49.932;8.308;2022-10-16T03:14:34;5.70;;;5.30;;
12556;SDS011;6344;49.932;8.308;2022-10-16T03:17:00;4.73;;;4.43;;
12556;SDS011;6344;49.932;8.308;2022-10-16T03:19:27;4.60;;;4.20;;
12556;SDS011;6344;49.932;8.308;2022-10-16T03:21:55;4.23;;;3.93;;
12556;SDS011;6344;49.932;8.308;2022-10-16T03:24:22;4.83;;;4.53;;
12556;SDS011;6344;49.932;8.308;2022-10-16T03:26:49;5.33;;;4.43;;
12556;SDS011;6344;49.932;8.308;2022-10-16T03:29:15;5.63;;;4.50;;
12556;SDS011;6344;49.932;8.308;2022-10-16T03:31:42;4.33;;;4.03;;
12556;SDS011;6344;49.932;8.308;2022-10-16T03:34:09;5.33;;;4.80;;
12556;SDS011;6344;49.932;8.308;2022-10-16T03:36:35;4.53;;;4.13;;
12556;SDS011;6344;49.932;8.308;2022-10-16T03:39:03;4.13;;;3.80;;
12556;SDS011;6344;49.932;8.308;2022-10-16T03:41:30;4.10;;;3.77;;
12556;SDS011;6344;49.932;8.308;2022-10-16T03:43:57;4.00;;;3.70;;
12556;SDS011;6344;49.932;8.308;2022-10-16T03:46:23;3.60;;;3.40;;
12556;SDS011;6344;49.932;8.308;2022-10-16T03:48:50;3.23;;;3.03;;
12556;SDS011;6344;49.932;8.308;2022-10-16T03:51:17;4.80;;;3.70;;
12556;SDS011;6344;49.932;8.308;2022-10-16T03:53:44;4.77;;;3.53;;
12556;SDS011;6344;49.932;8.308;2022-10-16T03:56:12;4.40;;;3.20;;
12556;SDS011;6344;49.932;8.308;2022-10-16T03:58:39;3.43;;;3.13;;
12556;SDS011;6344;49.932;8.308;2022-10-16T04:01:06;3.50;;;3.30;;
12556;SDS011;6344;49.932;8.308;2022-10-16T04:03:32;3.60;;;3.40;;
12556;SDS011;6344;49.932;8.308;2022-10-16T04:05:59;3.07;;;2.87;;
12556;SDS011;6344;49.932;8.308;2022-10-16T04:08:26;2.93;;;2.73;;
12556;SDS011;6344;49.932;8.308;2022-10-16T04:10:52;3.40;;;3.10;;
12556;SDS011;6344;49.932;8.308;2022-10-16T04:13:20;2.57;;;2.47;;
12556;SDS011;6344;49.932;8.308;2022-10-16T04:15:47;2.53;;;2.43;;
12556;SDS011;6344;49.932;8.308;2022-10-16T04:18:14;3.03;;;2.83;;
12556;SDS011;6344;49.932;8.308;2022-10-16T04:20:40;3.03;;;2.73;;
12556;SDS011;6344;49.932;8.308;2022-10-16T04:23:07;2.17;;;1.97;;
12556;SDS011;6344;49.932;8.308;2022-10-16T04:25:34;2.70;;;2.50;;
12556;SDS011;6344;49.932;8.308;2022-10-16T04:28:01;2.77;;;2.10;;
12556;SDS011;6344;49.932;8.308;2022-10-16T04:30:29;5.27;;;2.97;;
12556;SDS011;6344;49.932;8.308;2022-10-16T04:32:56;3.37;;;2.20;;
12556;SDS011;6344;49.932;8.308;2022-10-16T04:35:22;2.40;;;2.27;;
12556;SDS011;6344;49.932;8.308;2022-10-16T04:37:49;2.73;;;2.53;;
12556;SDS011;6344;49.932;8.308;2022-10-16T04:40:16;2.73;;;2.53;;
12556;SDS011;6344;49.932;8.308;2022-10-16T04:42:43;2.70;;;2.50;;
12556;SDS011;6344;49.932;8.308;2022-10-16T04:45:09;2.77;;;2.53;;
12556;SDS011;6344;49.932;8.308;2022-10-16T04:47:37;2.90;;;2.70;;
12556;SDS011;6344;49.932;8.308;2022-10-16T04:50:04;2.80;;;2.60;;
12556;SDS011;6344;49.932;8.308;2022-10-16T04:52:32;3.30;;;3.10;;
12556;SDS011;6344;49.932;8.308;2022-10-16T04:54:59;2.73;;;2.53;;
12556;SDS011;6344;49.932;8.308;2022-10-16T04:57:27;3.37;;;2.80;;
12556;SDS011;6344;49.932;8.308;2022-10-16T04:59:54;3.33;;;3.00;;
12556;SDS011;6344;49.932;8.308;2022-10-16T05:02:21;3.13;;;2.93;;
12556;SDS011;6344;49.932;8.308;2022-10-16T05:04:49;3.23;;;3.03;;
12556;SDS011;6344;49.932;8.308;2022-10-16T05:07:16;3.47;;;3.17;;
12556;SDS011;6344;49.932;8.308;2022-10-16T05:09:42;4.23;;;3.53;;
12556;SDS011;6344;49.932;8.308;2022-10-16T05:12:09;3.63;;;3.33;;
12556;SDS011;6344;49.932;8.308;2022-10-16T05:14:36;3.10;;;2.90;;
12556;SDS011;6344;49.932;8.308;2022-10-16T05:17:02;3.60;;;3.40;;
12556;SDS011;6344;49.932;8.308;2022-10-16T05:19:29;4.43;;;4.03;;
12556;SDS011;6344;49.932;8.308;2022-10-16T05:21:57;3.37;;;3.07;;
12556;SDS011;6344;49.932;8.308;2022-10-16T05:24:24;3.43;;;3.23;;
12556;SDS011;6344;49.932;8.308;2022-10-16T05:26:51;4.13;;;3.20;;
12556;SDS011;6344;49.932;8.308;2022-10-16T05:29:18;3.20;;;3.00;;
12556;SDS011;6344;49.932;8.308;2022-10-16T05:31:45;3.77;;;3.47;;
12556;SDS011;6344;49.932;8.308;2022-10-16T05:34:12;3.33;;;3.13;;
12556;SDS011;6344;49.932;8.308;2022-10-16T05:36:39;3.43;;;3.23;;
12556;SDS011;6344;49.932;8.308;2022-10-16T05:39:07;3.70;;;2.90;;
12556;SDS011;6344;49.932;8.308;2022-10-16T05:41:33;3.80;;;3.40;;
12556;SDS011;6344;49.932;8.308;2022-10-16T05:44:00;3.87;;;3.57;;
12556;SDS011;6344;49.932;8.308;2022-10-16T05:46:30;4.10;;;3.80;;
12556;SDS011;6344;49.932;8.308;2022-10-16T05:48:56;3.63;;;3.37;;
12556;SDS011;6344;49.932;8.308;2022-10-16T05:51:23;3.53;;;3.33;;
12556;SDS011;6344;49.932;8.308;2022-10-16T05:53:50;4.80;;;3.50;;
12556;SDS011;6344;49.932;8.308;2022-10-16T05:56:19;3.43;;;3.23;;
12556;SDS011;6344;49.932;8.308;2022-10-16T05:58:46;4.37;;;4.07;;
12556;SDS011;6344;49.932;8.308;2022-10-16T06:01:13;4.40;;;3.40;;
12556;SDS011;6344;49.932;8.308;2022-10-16T06:03:42;4.00;;;3.70;;
12556;SDS011;6344;49.932;8.308;2022-10-16T06:06:09;4.07;;;3.77;;
12556;SDS011;6344;49.932;8.308;2022-10-16T06:08:36;3.50;;;3.20;;
12556;SDS011;6344;49.932;8.308;2022-10-16T06:11:04;3.73;;;3.53;;
12556;SDS011;6344;49.932;8.308;2022-10-16T06:13:33;3.77;;;3.47;;
12556;SDS011;6344;49.932;8.308;2022-10-16T06:16:00;3.47;;;3.27;;
12556;SDS011;6344;49.932;8.308;2022-10-16T06:18:28;4.10;;;3.80;;
12556;SDS011;6344;49.932;8.308;2022-10-16T06:20:55;4.77;;;3.60;;
12556;SDS011;6344;49.932;8.308;2022-10-16T06:23:22;3.57;;;3.33;;
12556;SDS011;6344;49.932;8.308;2022-10-16T06:25:49;3.67;;;3.37;;
12556;SDS011;6344;49.932;8.308;2022-10-16T06:28:16;4.43;;;4.07;;
12556;SDS011;6344;49.932;8.308;2022-10-16T06:30:44;4.83;;;3.37;;
12556;SDS011;6344;49.932;8.308;2022-10-16T06:33:11;4.87;;;4.37;;
12556;SDS011;6344;49.932;8.308;2022-10-16T06:35:38;8.63;;;4.40;;
12556;SDS011;6344;49.932;8.308;2022-10-16T06:38:04;5.10;;;4.67;;
12556;SDS011;6344;49.932;8.308;2022-10-16T06:40:31;5.03;;;4.73;;
12556;SDS011;6344;49.932;8.308;2022-10-16T06:42:58;5.83;;;5.43;;
12556;SDS011;6344;49.932;8.308;2022-10-16T06:45:24;5.30;;;4.80;;
12556;SDS011;6344;49.932;8.308;2022-10-16T06:47:52;7.00;;;6.50;;
12556;SDS011;6344;49.932;8.308;2022-10-16T06:50:19;8.23;;;6.10;;
12556;SDS011;6344;49.932;8.308;2022-10-16T06:52:46;6.20;;;5.70;;
12556;SDS011;6344;49.932;8.308;2022-10-16T06:55:12;6.40;;;5.90;;
12556;SDS011;6344;49.932;8.308;2022-10-16T06:57:39;6.77;;;6.27;;
12556;SDS011;6344;49.932;8.308;2022-10-16T07:00:06;5.23;;;4.93;;
12556;SDS011;6344;49.932;8.308;2022-10-16T07:02:34;5.10;;;4.70;;
12556;SDS011;6344;49.932;8.308;2022-10-16T07:05:02;5.00;;;4.70;;
12556;SDS011;6344;49.932;8.308;2022-10-16T07:07:29;5.07;;;4.77;;
12556;SDS011;6344;49.932;8.308;2022-10-16T07:09:55;3.63;;;3.43;;
12556;SDS011;6344;49.932;8.308;2022-10-16T07:12:24;4.83;;;4.43;;
12556;SDS011;6344;49.932;8.308;2022-10-16T07:14:51;4.10;;;3.83;;
12556;SDS011;6344;49.932;8.308;2022-10-16T07:17:19;3.90;;;3.60;;
12556;SDS011;6344;49.932;8.308;2022-10-16T07:19:45;3.93;;;3.63;;
12556;SDS011;6344;49.932;8.308;2022-10-16T07:22:13;4.43;;;4.03;;
12556;SDS011;6344;49.932;8.308;2022-10-16T07:24:40;4.47;;;4.17;;
12556;SDS011;6344;49.932;8.308;2022-10-16T07:27:08;7.50;;;7.00;;
12556;SDS011;6344;49.932;8.308;2022-10-16T07:29:35;7.27;;;6.60;;
12556;SDS011;6344;49.932;8.308;2022-10-16T07:32:01;5.33;;;4.93;;
12556;SDS011;6344;49.932;8.308;2022-10-16T07:34:28;5.20;;;4.80;;
12556;SDS011;6344;49.932;8.308;2022-10-16T07:36:55;3.43;;;3.17;;
12556;SDS011;6344;49.932;8.308;2022-10-16T07:39:23;4.07;;;3.87;;
12556;SDS011;6344;49.932;8.308;2022-10-16T07:41:50;3.60;;;3.40;;
12556;SDS011;6344;49.932;8.308;2022-10-16T07:44:16;4.00;;;3.60;;
12556;SDS011;6344;49.932;8.308;2022-10-16T07:46:43;4.13;;;3.80;;
12556;SDS011;6344;49.932;8.308;2022-10-16T07:49:10;3.60;;;3.40;;
12556;SDS011;6344;49.932;8.308;2022-10-16T07:51:36;4.80;;;4.50;;
12556;SDS011;6344;49.932;8.308;2022-10-16T07:54:04;4.20;;;3.97;;
12556;SDS011;6344;49.932;8.308;2022-10-16T07:56:32;3.60;;;3.40;;
12556;SDS011;6344;49.932;8.308;2022-10-16T07:58:59;4.33;;;4.03;;
12556;SDS011;6344;49.932;8.308;2022-10-16T08:01:25;4.20;;;4.00;;
12556;SDS011;6344;49.932;8.308;2022-10-16T08:03:53;4.13;;;3.80;;
12556;SDS011;6344;49.932;8.308;2022-10-16T08:06:20;4.30;;;3.90;;
12556;SDS011;6344;49.932;8.308;2022-10-16T08:08:47;4.60;;;4.20;;
12556;SDS011;6344;49.932;8.308;2022-10-16T08:11:14;4.37;;;4.07;;
12556;SDS011;6344;49.932;8.308;2022-10-16T08:13:42;5.10;;;4.73;;
12556;SDS011;6344;49.932;8.308;2022-10-16T08:16:09;6.87;;;4.53;;
12556;SDS011;6344;49.932;8.308;2022-10-16T08:18:36;7.27;;;4.67;;
12556;SDS011;6344;49.932;8.308;2022-10-16T08:21:04;4.40;;;4.10;;
12556;SDS011;6344;49.932;8.308;2022-10-16T08:23:31;5.20;;;4.80;;
12556;SDS011;6344;49.932;8.308;2022-10-16T08:26:01;4.57;;;4.27;;
12556;SDS011;6344;49.932;8.308;2022-10-16T08:28:29;4.90;;;4.60;;
12556;SDS011;6344;49.932;8.308;2022-10-16T08:31:03;4.90;;;4.60;;
12556;SDS011;6344;49.932;8.308;2022-10-16T08:33:31;5.73;;;5.30;;
12556;SDS011;6344;49.932;8.308;2022-10-16T08:35:59;4.67;;;4.27;;
12556;SDS011;6344;49.932;8.308;2022-10-16T08:38:26;3.73;;;3.53;;
12556;SDS011;6344;49.932;8.308;2022-10-16T08:40:53;6.00;;;5.50;;
12556;SDS011;6344;49.932;8.308;2022-10-16T08:43:31;5.27;;;4.97;;
12556;SDS011;6344;49.932;8.308;2022-10-16T08:46:17;5.07;;;4.67;;
12556;SDS011;6344;49.932;8.308;2022-10-16T08:48:52;4.57;;;4.17;;
12556;SDS011;6344;49.932;8.308;2022-10-16T08:51:22;5.43;;;4.37;;
12556;SDS011;6344;49.932;8.308;2022-10-16T08:53:52;3.50;;;3.20;;
12556;SDS011;6344;49.932;8.308;2022-10-16T08:56:21;3.80;;;3.50;;
12556;SDS011;6344;49.932;8.308;2022-10-16T08:58:48;3.87;;;3.67;;
12556;SDS011;6344;49.932;8.308;2022-10-16T09:01:18;3.43;;;3.13;;
12556;SDS011;6344;49.932;8.308;2022-10-16T09:03:52;3.00;;;2.80;;
12556;SDS011;6344;49.932;8.308;2022-10-16T09:06:42;3.00;;;2.70;;
12556;SDS011;6344;49.932;8.308;2022-10-16T09:09:19;3.33;;;3.13;;
12556;SDS011;6344;49.932;8.308;2022-10-16T09:11:55;3.07;;;2.77;;
12556;SDS011;6344;49.932;8.308;2022-10-16T09:14:34;3.00;;;2.60;;
12556;SDS011;6344;49.932;8.308;2022-10-16T09:17:19;3.57;;;3.30;;
12556;SDS011;6344;49.932;8.308;2022-10-16T09:19:53;2.90;;;2.70;;
12556;SDS011;6344;49.932;8.308;2022-10-16T09:22:29;10.30;;;3.00;;
12556;SDS011;6344;49.932;8.308;2022-10-16T09:24:58;4.17;;;3.50;;
12556;SDS011;6344;49.932;8.308;2022-10-16T09:27:26;4.03;;;3.40;;
12556;SDS011;6344;49.932;8.308;2022-10-16T09:29:53;8.83;;;4.10;;
12556;SDS011;6344;49.932;8.308;2022-10-16T09:32:21;3.80;;;3.13;;
12556;SDS011;6344;49.932;8.308;2022-10-16T09:34:49;3.30;;;3.10;;
12556;SDS011;6344;49.932;8.308;2022-10-16T09:37:19;2.87;;;2.67;;
12556;SDS011;6344;49.932;8.308;2022-10-16T09:39:49;3.40;;;3.20;;
12556;SDS011;6344;49.932;8.308;2022-10-16T09:42:16;3.57;;;3.37;;
12556;SDS011;6344;49.932;8.308;2022-10-16T09:44:47;2.87;;;2.67;;
12556;SDS011;6344;49.932;8.308;2022-10-16T09:47:16;3.07;;;2.87;;
12556;SDS011;6344;49.932;8.308;2022-10-16T09:49:52;2.93;;;2.63;;
12556;SDS011;6344;49.932;8.308;2022-10-16T09:52:20;2.73;;;2.53;;
12556;SDS011;6344;49.932;8.308;2022-10-16T09:54:52;2.90;;;2.70;;
12556;SDS011;6344;49.932;8.308;2022-10-16T09:57:20;2.87;;;2.60;;
12556;SDS011;6344;49.932;8.308;2022-10-16T09:59:48;2.70;;;2.50;;
12556;SDS011;6344;49.932;8.308;2022-10-16T10:02:16;2.63;;;2.43;;
12556;SDS011;6344;49.932;8.308;2022-10-16T10:04:48;3.23;;;2.50;;
12556;SDS011;6344;49.932;8.308;2022-10-16T10:07:23;2.80;;;2.50;;
12556;SDS011;6344;49.932;8.308;2022-10-16T10:09:52;2.63;;;2.43;;
12556;SDS011;6344;49.932;8.308;2022-10-16T10:12:21;2.63;;;2.50;;
12556;SDS011;6344;49.932;8.308;2022-10-16T10:14:50;2.33;;;2.23;;
12556;SDS011;6344;49.932;8.308;2022-10-16T10:17:18;2.43;;;2.33;;
12556;SDS011;6344;49.932;8.308;2022-10-16T10:19:48;3.03;;;2.70;;
12556;SDS011;6344;49.932;8.308;2022-10-16T10:22:17;3.10;;;2.80;;
12556;SDS011;6344;49.932;8.308;2022-10-16T10:25:00;2.40;;;2.30;;
12556;SDS011;6344;49.932;8.308;2022-10-16T10:28:06;2.73;;;2.53;;
12556;SDS011;6344;49.932;8.308;2022-10-16T10:30:56;4.03;;;3.77;;
12556;SDS011;6344;49.932;8.308;2022-10-16T10:33:28;4.43;;;4.13;;
12556;SDS011;6344;49.932;8.308;2022-10-16T10:36:05;4.30;;;3.90;;
12556;SDS011;6344;49.932;8.308;2022-10-16T10:38:45;6.07;;;4.23;;
12556;SDS011;6344;49.932;8.308;2022-10-16T10:41:27;4.47;;;4.17;;
12556;SDS011;6344;49.932;8.308;2022-10-16T10:44:11;5.10;;;4.63;;
12556;SDS011;6344;49.932;8.308;2022-10-16T10:46:47;5.53;;;5.03;;
12556;SDS011;6344;49.932;8.308;2022-10-16T10:49:20;4.90;;;4.50;;
12556;SDS011;6344;49.932;8.308;2022-10-16T10:52:01;5.40;;;4.90;;
12556;SDS011;6344;49.932;8.308;2022-10-16T10:54:41;6.30;;;5.70;;
12556;SDS011;6344;49.932;8.308;2022-10-16T10:57:19;6.17;;;5.67;;
12556;SDS011;6344;49.932;8.308;2022-10-16T10:59:54;5.90;;;5.40;;
12556;SDS011;6344;49.932;8.308;2022-10-16T11:02:34;6.00;;;5.60;;
12556;SDS011;6344;49.932;8.308;2022-10-16T11:05:12;5.93;;;5.40;;
12556;SDS011;6344;49.932;8.308;2022-10-16T11:07:58;4.53;;;4.13;;
12556;SDS011;6344;49.932;8.308;2022-10-16T11:10:28;5.40;;;5.07;;
12556;SDS011;6344;49.932;8.308;2022-10-16T11:13:04;4.47;;;4.17;;
12556;SDS011;6344;49.932;8.308;2022-10-16T11:15:42;6.73;;;5.20;;
12556;SDS011;6344;49.932;8.308;2022-10-16T11:18:15;4.30;;;4.00;;
12556;SDS011;6344;49.932;8.308;2022-10-16T11:20:47;3.73;;;3.53;;
12556;SDS011;6344;49.932;8.308;2022-10-16T11:23:18;4.30;;;3.80;;
12556;SDS011;6344;49.932;8.308;2022-10-16T11:25:51;4.70;;;4.40;;
12556;SDS011;6344;49.932;8.308;2022-10-16T11:28:20;4.37;;;4.07;;
12556;SDS011;6344;49.932;8.308;2022-10-16T11:30:52;4.70;;;4.20;;
12556;SDS011;6344;49.932;8.308;2022-10-16T11:33:25;4.17;;;3.77;;
12556;SDS011;6344;49.932;8.308;2022-10-16T11:35:59;4.33;;;3.80;;
12556;SDS011;6344;49.932;8.308;2022-10-16T11:38:30;3.93;;;3.53;;
12556;SDS011;6344;49.932;8.308;2022-10-16T11:41:03;4.93;;;3.20;;
12556;SDS011;6344;49.932;8.308;2022-10-16T11:43:41;3.97;;;3.67;;
12556;SDS011;6344;49.932;8.308;2022-10-16T11:46:15;3.37;;;3.17;;
12556;SDS011;6344;49.932;8.308;2022-10-16T11:48:45;3.13;;;2.90;;
12556;SDS011;6344;49.932;8.308;2022-10-16T11:51:19;3.40;;;3.20;;
12556;SDS011;6344;49.932;8.308;2022-10-16T11:53:57;6.03;;;3.43;;
12556;SDS011;6344;49.932;8.308;2022-10-16T11:56:29;2.70;;;2.60;;
12556;SDS011;6344;49.932;8.308;2022-10-16T11:59:00;3.40;;;3.10;;
12556;SDS011;6344;49.932;8.308;2022-10-16T12:01:33;3.10;;;2.90;;
12556;SDS011;6344;49.932;8.308;2022-10-16T12:04:13;3.30;;;3.00;;
12556;SDS011;6344;49.932;8.308;2022-10-16T12:06:46;2.87;;;2.67;;
12556;SDS011;6344;49.932;8.308;2022-10-16T12:09:19;2.50;;;2.30;;
12556;SDS011;6344;49.932;8.308;2022-10-16T12:11:48;2.50;;;2.40;;
12556;SDS011;6344;49.932;8.308;2022-10-16T12:14:21;3.30;;;3.10;;
12556;SDS011;6344;49.932;8.308;2022-10-16T12:17:01;3.00;;;2.90;;
12556;SDS011;6344;49.932;8.308;2022-10-16T12:19:30;2.57;;;2.40;;
12556;SDS011;6344;49.932;8.308;2022-10-16T12:21:58;2.70;;;2.47;;
12556;SDS011;6344;49.932;8.308;2022-10-16T12:24:34;3.00;;;2.80;;
12556;SDS011;6344;49.932;8.308;2022-10-16T12:27:02;2.90;;;2.70;;
12556;SDS011;6344;49.932;8.308;2022-10-16T12:29:33;3.00;;;2.80;;
12556;SDS011;6344;49.932;8.308;2022-10-16T12:32:04;2.67;;;2.47;;
12556;SDS011;6344;49.932;8.308;2022-10-16T12:34:34;2.30;;;2.10;;
12556;SDS011;6344;49.932;8.308;2022-10-16T12:37:13;2.47;;;2.27;;
12556;SDS011;6344;49.932;8.308;2022-10-16T12:39:44;2.73;;;2.53;;
12556;SDS011;6344;49.932;8.308;2022-10-16T12:42:19;3.30;;;3.00;;
12556;SDS011;6344;49.932;8.308;2022-10-16T12:44:50;3.00;;;2.23;;
12556;SDS011;6344;49.932;8.308;2022-10-16T12:47:21;2.13;;;2.03;;
12556;SDS011;6344;49.932;8.308;2022-10-16T12:49:50;3.20;;;2.90;;
12556;SDS011;6344;49.932;8.308;2022-10-16T12:52:25;2.90;;;2.80;;
12556;SDS011;6344;49.932;8.308;2022-10-16T12:54:55;3.00;;;2.80;;
12556;SDS011;6344;49.932;8.308;2022-10-16T12:57:31;3.30;;;2.87;;
12556;SDS011;6344;49.932;8.308;2022-10-16T13:00:12;3.10;;;2.90;;
12556;SDS011;6344;49.932;8.308;2022-10-16T13:02:59;2.93;;;2.73;;
12556;SDS011;6344;49.932;8.308;2022-10-16T13:05:47;3.07;;;2.87;;
12556;SDS011;6344;49.932;8.308;2022-10-16T13:08:29;2.80;;;2.60;;
12556;SDS011;6344;49.932;8.308;2022-10-16T13:11:11;3.20;;;3.00;;
12556;SDS011;6344;49.932;8.308;2022-10-16T13:13:50;3.03;;;2.83;;
12556;SDS011;6344;49.932;8.308;2022-10-16T13:16:42;2.60;;;2.50;;
12556;SDS011;6344;49.932;8.308;2022-10-16T13:19:18;3.37;;;3.17;;
12556;SDS011;6344;49.932;8.308;2022-10-16T13:21:56;3.50;;;3.30;;
12556;SDS011;6344;49.932;8.308;2022-10-16T13:24:35;3.00;;;2.63;;
12556;SDS011;6344;49.932;8.308;2022-10-16T13:27:14;3.27;;;3.07;;
12556;SDS011;6344;49.932;8.308;2022-10-16T13:29:51;3.20;;;3.00;;
12556;SDS011;6344;49.932;8.308;2022-10-16T13:32:21;2.97;;;2.70;;
12556;SDS011;6344;49.932;8.308;2022-10-16T13:34:48;3.90;;;3.20;;
12556;SDS011;6344;49.932;8.308;2022-10-16T13:37:19;5.03;;;3.17;;
12556;SDS011;6344;49.932;8.308;2022-10-16T13:39:47;3.23;;;3.03;;
12556;SDS011;6344;49.932;8.308;2022-10-16T13:42:17;3.67;;;3.37;;
12556;SDS011;6344;49.932;8.308;2022-10-16T13:44:50;4.80;;;4.50;;
12556;SDS011;6344;49.932;8.308;2022-10-16T13:47:19;3.93;;;3.73;;
12556;SDS011;6344;49.932;8.308;2022-10-16T13:49:58;3.23;;;2.97;;
12556;SDS011;6344;49.932;8.308;2022-10-16T13:52:25;3.40;;;3.20;;
12556;SDS011;6344;49.932;8.308;2022-10-16T13:54:52;4.50;;;4.20;;
12556;SDS011;6344;49.932;8.308;2022-10-16T13:57:21;4.43;;;4.13;;
12556;SDS011;6344;49.932;8.308;2022-10-16T13:59:49;4.30;;;4.00;;
12556;SDS011;6344;49.932;8.308;2022-10-16T14:02:18;4.63;;;3.67;;
12556;SDS011;6344;49.932;8.308;2022-10-16T14:04:50;4.70;;;3.90;;
12556;SDS011;6344;49.932;8.308;2022-10-16T14:07:18;4.23;;;3.90;;
12556;SDS011;6344;49.932;8.308;2022-10-16T14:09:50;4.10;;;3.80;;
12556;SDS011;6344;49.932;8.308;2022-10-16T14:12:18;3.83;;;3.50;;
12556;SDS011;6344;49.932;8.308;2022-10-16T14:14:46;3.70;;;3.50;;
12556;SDS011;6344;49.932;8.308;2022-10-16T14:17:14;5.10;;;4.60;;
12556;SDS011;6344;49.932;8.308;2022-10-16T14:19:44;4.50;;;4.20;;
12556;SDS011;6344;49.932;8.308;2022-10-16T14:22:21;4.70;;;4.30;;
12556;SDS011;6344;49.932;8.308;2022-10-16T14:24:53;4.33;;;4.03;;
12556;SDS011;6344;49.932;8.308;2022-10-16T14:27:28;4.70;;;4.40;;
12556;SDS011;6344;49.932;8.308;2022-10-16T14:30:12;4.90;;;4.50;;
12556;SDS011;6344;49.932;8.308;2022-10-16T14:32:40;4.83;;;4.43;;
12556;SDS011;6344;49.932;8.308;2022-10-16T14:35:21;4.73;;;4.33;;
12556;SDS011;6344;49.932;8.308;2022-10-16T14:37:54;5.27;;;4.87;;
12556;SDS011;6344;49.932;8.308;2022-10-16T14:40:23;4.50;;;4.30;;
12556;SDS011;6344;49.932;8.308;2022-10-16T14:42:51;4.50;;;4.20;;
12556;SDS011;6344;49.932;8.308;2022-10-16T14:45:20;5.23;;;4.87;;
12556;SDS011;6344;49.932;8.308;2022-10-16T14:47:49;4.87;;;4.57;;
12556;SDS011;6344;49.932;8.308;2022-10-16T14:50:18;5.60;;;5.30;;
12556;SDS011;6344;49.932;8.308;2022-10-16T14:52:45;4.60;;;4.33;;
12556;SDS011;6344;49.932;8.308;2022-10-16T14:55:13;5.47;;;4.40;;
12556;SDS011;6344;49.932;8.308;2022-10-16T14:57:40;5.57;;;5.07;;
12556;SDS011;6344;49.932;8.308;2022-10-16T15:00:10;5.37;;;5.07;;
12556;SDS011;6344;49.932;8.308;2022-10-16T15:02:41;5.73;;;5.10;;
12556;SDS011;6344;49.932;8.308;2022-10-16T15:05:11;5.43;;;4.73;;
12556;SDS011;6344;49.932;8.308;2022-10-16T15:07:41;5.30;;;4.77;;
12556;SDS011;6344;49.932;8.308;2022-10-16T15:10:08;5.13;;;4.80;;
12556;SDS011;6344;49.932;8.308;2022-10-16T15:12:37;4.90;;;4.50;;
12556;SDS011;6344;49.932;8.308;2022-10-16T15:15:14;5.40;;;4.93;;
12556;SDS011;6344;49.932;8.308;2022-10-16T15:17:49;5.10;;;4.60;;